createdAt,value
2023-04-18T05:53:14.969Z,100273.06
2023-04-18T05:56:10.946Z,100246.97
2023-04-18T05:58:39.441Z,100275.41
2023-04-18T06:01:14.395Z,100263.03
2023-04-18T06:03:45.905Z,100262.94
2023-04-18T06:06:14.709Z,100269.28
2023-04-18T06:08:44.497Z,100256.19
2023-04-18T06:11:15.117Z,100274.41
2023-04-18T06:13:43.599Z,100270.41
2023-04-18T06:16:12.167Z,100271.03
2023-04-18T06:18:40.902Z,100268.88
2023-04-18T06:21:09.440Z,100274.72
2023-04-18T06:23:38.640Z,100272.81
2023-04-18T06:26:09.360Z,100269.63
2023-04-18T06:28:37.843Z,100271.72
2023-04-18T06:31:06.656Z,100268.72
2023-04-18T06:33:35.746Z,100265.59
2023-04-18T06:36:04.146Z,100276.28
2023-04-18T06:38:36.343Z,100271.44
2023-04-18T06:41:05.011Z,100269.34
2023-04-18T06:43:37.828Z,100262.00
2023-04-18T06:46:14.530Z,100265.22
2023-04-18T06:48:42.977Z,100249.22
2023-04-18T06:51:11.418Z,100258.06
2023-04-18T06:53:39.863Z,100256.63
2023-04-18T06:56:08.922Z,100259.91
2023-04-18T06:58:40.158Z,100259.75
2023-04-18T07:01:08.822Z,100258.22
2023-04-18T07:03:46.571Z,100259.38
2023-04-18T07:06:15.392Z,100258.19
2023-04-18T07:08:44.526Z,100254.44
2023-04-18T07:11:14.071Z,100236.72
2023-04-18T07:13:45.649Z,100262.56
2023-04-18T07:16:21.525Z,100258.94
2023-04-18T07:18:50.213Z,100268.63
2023-04-18T07:21:18.902Z,100261.25
2023-04-18T07:23:48.102Z,100260.38
2023-04-18T07:26:16.590Z,100248.69
2023-04-18T07:28:47.045Z,100256.44
2023-04-18T07:31:16.799Z,100254.78
2023-04-18T07:33:45.519Z,100257.19
2023-04-18T07:36:14.044Z,100260.50
2023-04-18T07:38:45.823Z,100261.72
2023-04-18T07:41:17.660Z,100244.75
2023-04-18T07:43:47.763Z,100234.19
2023-04-18T07:46:16.415Z,100255.13
2023-04-18T07:48:44.840Z,100251.91
2023-04-18T07:51:13.732Z,100243.53
2023-04-18T07:53:43.765Z,100241.50
2023-04-18T07:56:14.680Z,100252.47
2023-04-18T07:58:43.374Z,100251.81
2023-04-18T08:01:15.438Z,100249.50
2023-04-18T08:03:44.320Z,100254.63
2023-04-18T08:06:12.855Z,100255.78
2023-04-18T08:08:41.439Z,100253.94
2023-04-18T08:11:10.080Z,100232.00
2023-04-18T08:13:38.629Z,100235.19
2023-04-18T08:16:07.739Z,100236.28
2023-04-18T08:18:37.735Z,100245.16
2023-04-18T08:21:06.685Z,100245.47
2023-04-18T08:23:35.250Z,100240.59
2023-04-18T08:26:03.737Z,100242.63
2023-04-18T08:28:32.256Z,100242.00
2023-04-18T08:31:00.823Z,100246.44
2023-04-18T08:33:32.427Z,100246.69
2023-04-18T08:36:02.630Z,100234.59
2023-04-18T08:38:31.317Z,100242.09
2023-04-18T08:40:59.906Z,100231.03
2023-04-18T08:43:30.318Z,100237.66
2023-04-18T08:46:00.951Z,100232.94
2023-04-18T08:48:29.639Z,100231.06
2023-04-18T08:50:59.292Z,100225.25
2023-04-18T08:53:29.330Z,100233.13
2023-04-18T08:56:00.485Z,100226.75
2023-04-18T08:58:33.958Z,100224.34
2023-04-18T09:01:02.558Z,100225.06
2023-04-18T09:03:39.859Z,100235.22
2023-04-18T09:06:10.542Z,100229.66
2023-04-18T09:08:43.365Z,100231.28
2023-04-18T09:11:26.195Z,100235.69
2023-04-18T09:13:56.435Z,100222.38
2023-04-18T09:16:25.446Z,100241.56
2023-04-18T09:19:14.443Z,100243.91
2023-04-18T09:21:46.451Z,100221.34
2023-04-18T09:24:24.148Z,100239.47
2023-04-18T09:26:54.241Z,100243.22
2023-04-18T09:29:24.235Z,100230.25
2023-04-18T09:32:03.000Z,100242.94
2023-04-18T09:34:34.065Z,100234.75
2023-04-18T09:37:10.433Z,100238.34
2023-04-18T09:39:41.669Z,100210.47
2023-04-18T09:42:11.264Z,100241.19
2023-04-18T09:44:39.997Z,100241.38
2023-04-18T09:47:08.930Z,100237.75
2023-04-18T09:49:39.302Z,100235.94
2023-04-18T09:52:08.977Z,100213.31
2023-04-18T09:54:41.550Z,100225.28
2023-04-18T09:57:13.792Z,100235.81
2023-04-18T09:59:48.543Z,100242.28
2023-04-18T10:02:22.333Z,100235.81
2023-04-18T10:04:52.295Z,100241.13
2023-04-18T10:07:22.404Z,100241.28
2023-04-18T10:09:53.329Z,100249.97
2023-04-18T10:12:22.037Z,100242.53
2023-04-18T10:14:50.912Z,100247.53
2023-04-18T10:17:21.736Z,100256.13
2023-04-18T10:20:07.236Z,100258.78
2023-04-18T10:22:36.784Z,100254.22
2023-04-18T10:25:08.156Z,100247.19
2023-04-18T10:27:59.693Z,100247.00
2023-04-18T10:30:52.352Z,100246.50
2023-04-18T10:33:32.251Z,100239.97
2023-04-18T10:36:16.213Z,100252.38
2023-04-18T10:38:49.808Z,100255.53
2023-04-18T10:41:27.537Z,100261.56
2023-04-18T10:44:29.392Z,100262.44
2023-04-18T10:47:25.576Z,100249.41
2023-04-18T10:50:06.253Z,100267.91
2023-04-18T10:52:35.660Z,100261.34
2023-04-18T10:55:15.793Z,100252.94
2023-04-18T10:57:47.002Z,100254.00
2023-04-18T11:00:17.850Z,100259.03
2023-04-18T11:02:52.189Z,100226.81
2023-04-18T11:05:23.232Z,100234.66
2023-04-18T11:07:51.852Z,100218.78
2023-04-18T11:10:22.244Z,100249.81
2023-04-18T11:12:52.806Z,100253.66
2023-04-18T11:15:22.766Z,100244.31
2023-04-18T11:17:59.322Z,100236.34
2023-04-18T11:20:28.491Z,100243.66
2023-04-18T11:22:58.387Z,100239.88
2023-04-18T11:25:29.493Z,100245.72
2023-04-18T11:28:03.799Z,100228.38
2023-04-18T11:30:38.832Z,100224.56
2023-04-18T11:33:10.316Z,100230.69
2023-04-18T11:35:40.631Z,100202.88
2023-04-18T11:38:11.788Z,100237.41
2023-04-18T11:40:40.836Z,100233.50
2023-04-18T11:43:10.668Z,100233.81
2023-04-18T11:45:39.379Z,100233.06
2023-04-18T11:48:07.899Z,100229.13
2023-04-18T11:50:40.499Z,100226.66
2023-04-18T11:53:13.089Z,100211.75
2023-04-18T11:55:42.565Z,100233.69
2023-04-18T11:58:14.881Z,100221.44
2023-04-18T12:00:46.989Z,100208.25
2023-04-18T12:03:17.994Z,100231.72
2023-04-18T12:05:47.125Z,100217.06
2023-04-18T12:08:20.106Z,100223.75
2023-04-18T12:10:50.686Z,100222.00
2023-04-18T12:13:36.953Z,100212.19
2023-04-18T12:16:13.808Z,100239.97
2023-04-18T12:21:32.561Z,100223.16
2023-04-18T12:24:01.634Z,100213.28
2023-04-18T12:26:30.150Z,100221.78
2023-04-18T12:29:02.237Z,100224.69
2023-04-18T12:31:30.738Z,100220.16
2023-04-18T12:34:00.648Z,100223.56
2023-04-18T12:36:29.224Z,100215.13
2023-04-18T12:38:57.700Z,100214.19
2023-04-18T12:42:10.796Z,100207.97
2023-04-18T12:44:48.093Z,100194.22
2023-04-18T12:47:22.119Z,100216.56
2023-04-18T12:49:58.237Z,100183.28
2023-04-18T12:52:27.245Z,100163.59
2023-04-18T12:55:00.443Z,100213.59
2023-04-18T12:57:30.581Z,100210.25
2023-04-18T13:00:01.959Z,100172.69
2023-04-18T13:02:38.552Z,100167.16
2023-04-18T13:08:41.703Z,100193.28
2023-04-18T13:11:10.600Z,100207.91
2023-04-18T13:13:39.470Z,100187.53
2023-04-18T13:16:09.693Z,100200.34
2023-04-18T13:18:38.202Z,100200.03
2023-04-18T13:21:06.902Z,100202.84
2023-04-18T13:23:35.620Z,100208.53
2023-04-18T13:26:04.092Z,100192.38
2023-04-18T13:28:32.617Z,100208.19
2023-04-18T13:31:01.093Z,100204.41
2023-04-18T13:33:31.062Z,100206.94
2023-04-18T13:35:59.727Z,100206.81
2023-04-18T13:38:31.554Z,100181.56
2023-04-18T13:41:11.538Z,100202.06
2023-04-18T13:43:41.735Z,100198.78
2023-04-18T13:46:13.281Z,100199.47
2023-04-18T13:48:45.170Z,100176.91
2023-04-18T13:51:16.597Z,100186.31
2023-04-18T13:53:49.869Z,100165.50
2023-04-18T13:56:23.743Z,100194.38
2023-04-18T13:59:16.862Z,100173.34
2023-04-18T14:01:47.277Z,100195.00
2023-04-18T14:04:23.220Z,100198.06
2023-04-18T14:06:54.951Z,100179.03
2023-04-18T14:09:26.140Z,100195.06
2023-04-18T14:11:58.456Z,100160.25
2023-04-18T14:14:27.185Z,100166.19
2023-04-18T14:16:55.883Z,100181.69
2023-04-18T14:19:26.084Z,100191.97
2023-04-18T14:21:57.530Z,100190.28
2023-04-18T14:24:26.351Z,100165.19
2023-04-18T14:26:54.948Z,100163.16
2023-04-18T14:29:23.452Z,100191.31
2023-04-18T14:32:02.005Z,100176.00
2023-04-18T14:34:38.846Z,100150.47
2023-04-18T14:37:08.983Z,100181.53
2023-04-18T14:39:40.546Z,100189.81
2023-04-18T14:42:11.623Z,100191.16
2023-04-18T14:44:40.313Z,100181.13
2023-04-18T14:47:42.892Z,100172.28
2023-04-18T14:50:18.302Z,100192.84
2023-04-18T14:52:50.843Z,100187.13
2023-04-18T14:55:24.706Z,100213.19
2023-04-18T14:58:17.858Z,100146.78
2023-04-18T15:01:25.267Z,100181.00
2023-04-18T15:03:55.971Z,100205.47
2023-04-18T15:06:30.655Z,100213.63
2023-04-18T15:09:31.003Z,100190.47
2023-04-18T15:12:10.386Z,100189.66
2023-04-18T15:14:51.172Z,100189.13
2023-04-18T15:17:21.934Z,100192.88
2023-04-18T15:19:55.215Z,100214.09
2023-04-18T15:22:25.317Z,100204.31
2023-04-18T15:24:53.982Z,100218.94
2023-04-18T15:27:29.877Z,100212.00
2023-04-18T15:30:08.430Z,100196.59
2023-04-18T15:32:37.017Z,100205.69
2023-04-18T15:35:06.711Z,100214.22
2023-04-18T15:37:37.001Z,100218.72
2023-04-18T15:40:11.203Z,100209.59
2023-04-18T15:42:43.321Z,100227.50
2023-04-18T15:45:12.515Z,100219.25
2023-04-18T15:47:41.897Z,100225.81
2023-04-18T15:50:11.297Z,100210.56
2023-04-18T15:52:42.285Z,100225.88
2023-04-18T15:55:13.381Z,100223.34
2023-04-18T15:57:42.543Z,100210.38
2023-04-18T16:00:32.642Z,100197.44
2023-04-18T16:03:10.579Z,100220.25
2023-04-18T16:05:40.958Z,100223.63
2023-04-18T16:08:11.012Z,100222.34
2023-04-18T16:10:42.268Z,100219.59
2023-04-18T16:13:14.082Z,100213.94
2023-04-18T16:15:45.754Z,100225.78
2023-04-18T16:18:14.428Z,100223.88
2023-04-18T16:20:42.999Z,100217.94
2023-04-18T16:23:12.882Z,100225.34
2023-04-18T16:25:41.511Z,100195.78
2023-04-18T16:28:10.613Z,100214.41
2023-04-18T16:30:39.188Z,100224.09
2023-04-18T16:33:08.840Z,100206.13
2023-04-18T16:35:41.400Z,100228.84
2023-04-18T16:38:10.117Z,100220.94
2023-04-18T16:40:43.194Z,100229.34
2023-04-18T16:43:13.171Z,100243.63
2023-04-18T16:45:44.078Z,100218.34
2023-04-18T16:48:12.849Z,100208.78
2023-04-18T16:50:41.347Z,100239.84
2023-04-18T16:53:14.498Z,100237.03
2023-04-18T16:55:45.846Z,100245.81
2023-04-18T16:58:14.542Z,100239.63
2023-04-18T17:00:45.716Z,100236.50
2023-04-18T17:03:14.512Z,100237.03
2023-04-18T17:05:42.988Z,100243.38
2023-04-18T17:08:14.248Z,100242.13
2023-04-18T17:10:44.249Z,100243.44
2023-04-18T17:13:17.001Z,100241.69
2023-04-18T17:15:45.694Z,100251.31
2023-04-18T17:18:16.155Z,100239.97
2023-04-18T17:20:44.771Z,100246.00
2023-04-18T17:23:13.489Z,100252.16
2023-04-18T17:25:41.956Z,100255.03
2023-04-18T17:28:11.993Z,100229.03
2023-04-18T17:30:42.803Z,100246.69
2023-04-18T17:33:11.671Z,100250.56
2023-04-18T17:35:42.219Z,100254.38
2023-04-18T17:38:11.719Z,100256.88
2023-04-18T17:40:40.752Z,100240.72
2023-04-18T17:43:09.212Z,100266.56
2023-04-18T17:45:39.292Z,100259.06
2023-04-18T17:48:08.029Z,100266.09
2023-04-18T17:50:38.177Z,100248.72
2023-04-18T17:53:06.911Z,100256.91
2023-04-18T17:55:35.780Z,100261.38
2023-04-18T17:58:05.301Z,100256.69
2023-04-18T18:00:33.837Z,100257.06
2023-04-18T18:03:04.555Z,100261.72
2023-04-18T18:05:33.115Z,100259.72
2023-04-18T18:08:01.695Z,100257.88
2023-04-18T18:10:33.783Z,100258.22
2023-04-18T18:13:02.292Z,100251.56
2023-04-18T18:15:30.949Z,100251.88
2023-04-18T18:17:59.740Z,100260.38
2023-04-18T18:20:30.953Z,100262.88
2023-04-18T18:23:00.333Z,100254.22
2023-04-18T18:25:28.791Z,100261.56
2023-04-18T18:27:57.258Z,100264.41
2023-04-18T18:30:25.944Z,100257.06
2023-04-18T18:32:54.654Z,100265.88
2023-04-18T18:35:22.981Z,100253.50
2023-04-18T18:37:54.637Z,100245.22
2023-04-18T18:40:25.352Z,100261.56
2023-04-18T18:42:54.981Z,100260.72
2023-04-18T18:45:23.907Z,100260.03
2023-04-18T18:47:55.928Z,100250.56
2023-04-18T18:50:24.594Z,100255.72
2023-04-18T18:52:54.511Z,100240.22
2023-04-18T18:55:23.142Z,100253.22
2023-04-18T18:57:51.933Z,100252.53
2023-04-18T19:00:20.370Z,100247.25
2023-04-18T19:02:48.638Z,100246.91
2023-04-18T19:05:19.295Z,100252.03
2023-04-18T19:07:47.646Z,100255.72
2023-04-18T19:10:17.234Z,100256.06
2023-04-18T19:12:45.680Z,100244.56
2023-04-18T19:15:17.282Z,100245.91
2023-04-18T19:17:45.754Z,100252.22
2023-04-18T19:20:14.784Z,100245.34
2023-04-18T19:22:43.073Z,100243.50
2023-04-18T19:25:11.433Z,100247.16
2023-04-18T19:27:41.030Z,100240.88
2023-04-18T19:30:10.689Z,100239.41
2023-04-18T19:32:38.971Z,100243.56
2023-04-18T19:35:09.905Z,100240.22
2023-04-18T19:37:38.140Z,100247.19
2023-04-18T19:40:07.608Z,100246.22
2023-04-18T19:42:35.770Z,100253.72
2023-04-18T19:45:05.784Z,100257.22
2023-04-18T19:47:34.399Z,100255.38
2023-04-18T19:50:02.618Z,100252.34
2023-04-18T19:52:31.198Z,100261.63
2023-04-18T19:55:02.738Z,100261.00
2023-04-18T19:57:31.069Z,100265.00
2023-04-18T19:59:59.175Z,100258.03
2023-04-18T20:02:31.297Z,100267.88
2023-04-18T20:04:59.742Z,100258.47
2023-04-18T20:07:28.061Z,100263.94
2023-04-18T20:09:56.448Z,100256.47
2023-04-18T20:12:24.670Z,100269.25
2023-04-18T20:14:53.916Z,100258.34
2023-04-18T20:17:24.853Z,100261.38
2023-04-18T20:19:57.226Z,100262.53
2023-04-18T20:22:27.137Z,100257.97
2023-04-18T20:24:57.872Z,100270.13
2023-04-18T20:27:26.048Z,100263.16
2023-04-18T20:29:55.483Z,100257.22
2023-04-18T20:32:25.467Z,100264.56
2023-04-18T20:34:55.109Z,100260.28
2023-04-18T20:37:23.555Z,100272.69
2023-04-18T20:39:52.971Z,100271.59
2023-04-18T20:42:21.583Z,100267.97
2023-04-18T20:45:02.600Z,100267.75
2023-04-18T20:51:28.448Z,100273.75
2023-04-18T20:53:56.897Z,100273.94
2023-04-18T20:56:25.117Z,100271.69
2023-04-18T20:58:55.698Z,100279.97
2023-04-18T21:01:24.442Z,100279.59
2023-04-18T21:03:52.908Z,100282.56
2023-04-18T21:06:22.600Z,100283.41
2023-04-18T21:08:50.859Z,100284.44
2023-04-18T21:11:19.129Z,100286.56
2023-04-18T21:13:47.280Z,100285.91
2023-04-18T21:16:18.265Z,100284.94
2023-04-18T21:18:46.501Z,100284.94
2023-04-18T21:21:14.693Z,100290.50
2023-04-18T21:23:47.003Z,100290.03
2023-04-18T21:26:15.267Z,100288.97
2023-04-18T21:28:56.305Z,100286.03
2023-04-18T21:31:24.849Z,100290.81
2023-04-18T21:33:53.555Z,100286.56
2023-04-18T21:36:21.860Z,100285.38
2023-04-18T21:38:52.594Z,100291.06
2023-04-18T21:41:20.900Z,100292.38
2023-04-18T21:43:49.028Z,100288.00
2023-04-18T21:46:17.450Z,100291.94
2023-04-18T21:48:46.446Z,100292.09
2023-04-18T21:51:18.361Z,100286.53
2023-04-18T21:53:46.525Z,100282.22
2023-04-18T21:56:20.250Z,100289.88
2023-04-18T21:58:48.490Z,100298.31
2023-04-18T22:01:16.729Z,100295.50
2023-04-18T22:03:45.153Z,100292.25
2023-04-18T22:06:13.557Z,100296.88
2023-04-18T22:08:42.197Z,100294.06
2023-04-18T22:11:11.892Z,100297.75
2023-04-18T22:13:45.186Z,100297.63
2023-04-18T22:16:13.501Z,100298.91
2023-04-18T22:18:41.724Z,100296.25
2023-04-18T22:21:10.749Z,100290.28
2023-04-18T22:23:39.052Z,100286.44
2023-04-18T22:26:09.857Z,100292.16
2023-04-18T22:28:37.984Z,100292.97
2023-04-18T22:31:08.839Z,100294.44
2023-04-18T22:33:37.017Z,100289.38
2023-04-18T22:36:05.512Z,100295.09
2023-04-18T22:38:33.817Z,100288.81
2023-04-18T22:41:01.997Z,100296.78
2023-04-18T22:43:30.778Z,100296.47
2023-04-18T22:45:59.000Z,100302.41
2023-04-18T22:48:28.534Z,100298.00
2023-04-18T22:50:56.602Z,100299.31
2023-04-18T22:53:24.771Z,100291.69
2023-04-18T22:55:52.912Z,100297.84
2023-04-18T22:58:21.130Z,100294.75
2023-04-18T23:00:49.292Z,100298.09
2023-04-18T23:03:17.502Z,100298.16
2023-04-18T23:05:47.086Z,100297.41
2023-04-18T23:08:15.146Z,100298.16
2023-04-18T23:10:43.183Z,100287.13
2023-04-18T23:13:11.274Z,100292.09
2023-04-18T23:15:39.381Z,100290.66
2023-04-18T23:18:07.537Z,100294.63
2023-04-18T23:20:36.520Z,100298.03
2023-04-18T23:23:05.980Z,100292.09
2023-04-18T23:25:34.429Z,100297.75
2023-04-18T23:28:02.518Z,100290.63
2023-04-18T23:30:30.763Z,100293.94
2023-04-18T23:32:58.965Z,100297.13
2023-04-18T23:35:27.223Z,100296.94
2023-04-18T23:37:55.348Z,100294.19
2023-04-18T23:40:24.981Z,100300.72
2023-04-18T23:42:53.035Z,100292.72
2023-04-18T23:45:21.095Z,100283.63
2023-04-18T23:47:49.397Z,100283.09
2023-04-18T23:50:17.695Z,100289.38
2023-04-18T23:52:45.910Z,100284.75
2023-04-18T23:55:14.042Z,100289.66
2023-04-18T23:57:44.438Z,100288.13
